createdAt,value
2022-12-04T00:02:10.517Z,14.13
2022-12-04T00:04:37.126Z,13.70
2022-12-04T00:07:03.957Z,13.32
2022-12-04T00:09:30.413Z,15.15
2022-12-04T00:11:56.904Z,13.57
2022-12-04T00:14:23.496Z,14.18
2022-12-04T00:16:50.499Z,14.15
2022-12-04T00:19:17.380Z,14.20
2022-12-04T00:21:45.232Z,13.77
2022-12-04T00:24:12.156Z,13.20
2022-12-04T00:26:38.701Z,11.70
2022-12-04T00:29:05.403Z,12.50
2022-12-04T00:31:32.055Z,12.85
2022-12-04T00:34:00.386Z,12.73
2022-12-04T00:36:28.520Z,13.93
2022-12-04T00:38:55.609Z,12.93
2022-12-04T00:41:24.712Z,12.32
2022-12-04T00:43:51.803Z,13.05
2022-12-04T00:46:18.741Z,14.48
2022-12-04T00:48:46.293Z,12.00
2022-12-04T00:51:16.036Z,14.40
2022-12-04T00:53:42.833Z,13.00
2022-12-04T00:56:15.697Z,12.68
2022-12-04T00:58:43.899Z,12.15
2022-12-04T01:01:21.038Z,11.48
2022-12-04T01:03:48.441Z,10.48
2022-12-04T01:06:24.343Z,11.48
2022-12-04T01:08:52.926Z,12.20
2022-12-04T01:11:21.153Z,12.20
2022-12-04T01:13:47.723Z,11.77
2022-12-04T01:16:20.190Z,11.38
2022-12-04T01:18:47.571Z,11.93
2022-12-04T01:21:14.360Z,11.90
2022-12-04T01:23:40.896Z,12.52
2022-12-04T01:26:07.485Z,11.80
2022-12-04T01:28:34.255Z,10.35
2022-12-04T01:31:04.043Z,10.57
2022-12-04T01:33:32.080Z,12.27
2022-12-04T01:36:00.024Z,10.48
2022-12-04T01:38:27.629Z,12.38
2022-12-04T01:40:54.745Z,12.07
2022-12-04T01:43:21.767Z,10.98
2022-12-04T01:45:50.678Z,11.65
2022-12-04T01:48:23.085Z,12.40
2022-12-04T01:50:53.375Z,11.45
2022-12-04T01:53:21.038Z,11.13
2022-12-04T01:55:48.428Z,12.13
2022-12-04T01:58:15.606Z,12.23
2022-12-04T02:00:42.991Z,12.15
2022-12-04T02:03:09.850Z,12.65
2022-12-04T02:05:36.368Z,11.75
2022-12-04T02:08:05.794Z,11.98
2022-12-04T02:11:00.455Z,12.50
2022-12-04T02:13:46.567Z,11.55
2022-12-04T02:16:51.503Z,12.55
2022-12-04T02:19:52.147Z,11.30
2022-12-04T02:22:32.552Z,12.25
2022-12-04T02:25:12.835Z,12.77
2022-12-04T02:27:39.261Z,12.75
2022-12-04T02:30:09.873Z,12.20
2022-12-04T02:32:41.208Z,14.73
2022-12-04T02:35:16.540Z,13.07
2022-12-04T02:37:52.302Z,12.55
2022-12-04T02:40:29.784Z,11.75
2022-12-04T02:43:02.820Z,11.98
2022-12-04T02:45:39.488Z,10.30
2022-12-04T02:48:08.233Z,13.27
2022-12-04T02:50:40.281Z,11.38
2022-12-04T02:53:14.908Z,12.45
2022-12-04T02:55:49.776Z,11.07
2022-12-04T02:58:26.059Z,13.70
2022-12-04T03:00:56.620Z,11.00
2022-12-04T03:03:29.997Z,11.93
2022-12-04T03:06:05.808Z,12.52
2022-12-04T03:08:41.670Z,13.00
2022-12-04T03:11:08.307Z,12.55
2022-12-04T03:13:53.679Z,14.27
2022-12-04T03:16:29.459Z,12.57
2022-12-04T03:19:01.168Z,12.95
2022-12-04T03:24:23.992Z,11.27
2022-12-04T03:26:59.066Z,12.77
2022-12-04T03:29:35.678Z,11.60
2022-12-04T03:32:13.144Z,12.60
2022-12-04T03:34:44.947Z,11.98
2022-12-04T03:37:17.184Z,13.15
2022-12-04T03:40:02.308Z,12.85
2022-12-04T03:42:39.691Z,11.93
2022-12-04T03:45:28.888Z,12.90
2022-12-04T03:48:22.518Z,11.73
2022-12-04T03:51:26.229Z,10.75
2022-12-04T03:54:02.267Z,12.65
2022-12-04T03:56:34.773Z,11.88
2022-12-04T03:59:09.168Z,14.75
2022-12-04T04:01:42.206Z,12.15
2022-12-04T04:04:15.568Z,12.95
2022-12-04T04:06:57.016Z,13.82
2022-12-04T04:09:26.818Z,13.05
2022-12-04T04:12:03.189Z,11.88
2022-12-04T04:14:59.933Z,12.05
2022-12-04T04:17:51.678Z,12.32
2022-12-04T04:20:44.611Z,12.38
2022-12-04T04:23:31.012Z,12.55
2022-12-04T04:26:02.763Z,12.98
2022-12-04T04:31:17.457Z,11.57
2022-12-04T04:34:17.123Z,11.38
2022-12-04T04:36:54.620Z,12.60
2022-12-04T04:39:48.653Z,13.30
2022-12-04T04:42:26.790Z,14.57
2022-12-04T04:45:21.177Z,13.23
2022-12-04T04:47:47.656Z,13.80
2022-12-04T04:50:15.840Z,14.05
2022-12-04T04:52:46.647Z,15.05
2022-12-04T04:55:16.129Z,14.23
2022-12-04T04:57:42.609Z,15.23
2022-12-04T05:00:14.767Z,15.52
2022-12-04T05:02:42.019Z,13.32
2022-12-04T05:05:09.551Z,13.30
2022-12-04T05:07:36.032Z,14.23
2022-12-04T05:10:02.594Z,14.95
2022-12-04T05:12:29.068Z,13.98
2022-12-04T05:14:55.609Z,13.80
2022-12-04T05:17:22.124Z,14.35
2022-12-04T05:19:55.255Z,12.73
2022-12-04T05:22:32.003Z,13.13
2022-12-04T05:24:59.165Z,14.63
2022-12-04T05:27:27.867Z,12.93
2022-12-04T05:29:56.263Z,13.30
2022-12-04T05:32:25.015Z,15.65
2022-12-04T05:34:53.315Z,14.98
2022-12-04T05:37:20.766Z,14.35
2022-12-04T05:39:47.382Z,13.70
2022-12-04T05:42:14.600Z,13.63
2022-12-04T05:44:41.113Z,14.57
2022-12-04T05:47:07.979Z,13.13
2022-12-04T05:49:35.257Z,13.77
2022-12-04T05:52:03.471Z,14.75
2022-12-04T05:54:29.973Z,14.57
2022-12-04T05:56:56.469Z,12.65
2022-12-04T05:59:22.982Z,14.15
2022-12-04T06:01:49.478Z,13.60
2022-12-04T06:04:17.009Z,13.98
2022-12-04T06:06:43.507Z,14.63
2022-12-04T06:09:11.273Z,14.63
2022-12-04T06:11:39.972Z,14.90
2022-12-04T06:14:10.404Z,14.95
2022-12-04T06:16:40.156Z,15.50
2022-12-04T06:19:12.491Z,14.98
2022-12-04T06:21:40.864Z,15.48
2022-12-04T06:24:10.353Z,15.45
2022-12-04T06:26:52.034Z,15.02
2022-12-04T06:29:24.901Z,15.27
2022-12-04T06:31:51.922Z,13.88
2022-12-04T06:34:18.827Z,14.85
2022-12-04T06:36:45.242Z,15.68
2022-12-04T06:39:15.557Z,13.95
2022-12-04T06:41:45.048Z,15.70
2022-12-04T06:44:11.535Z,15.70
2022-12-04T06:46:43.507Z,15.48
2022-12-04T06:49:12.823Z,15.88
2022-12-04T06:51:40.675Z,14.43
2022-12-04T06:54:07.275Z,14.63
2022-12-04T06:56:34.456Z,13.68
2022-12-04T06:59:03.705Z,13.07
2022-12-04T07:01:33.312Z,14.52
2022-12-04T07:04:03.305Z,14.98
2022-12-04T07:06:35.035Z,14.05
2022-12-04T07:11:32.323Z,14.05
2022-12-04T07:13:58.862Z,13.52
2022-12-04T07:16:27.404Z,15.00
2022-12-04T07:18:54.783Z,14.18
2022-12-04T07:21:23.968Z,13.65
2022-12-04T07:23:52.396Z,14.07
2022-12-04T07:26:20.456Z,15.38
2022-12-04T07:28:47.384Z,14.30
2022-12-04T07:31:17.889Z,14.57
2022-12-04T07:33:45.515Z,14.43
2022-12-04T07:36:14.590Z,14.85
2022-12-04T07:38:42.127Z,15.02
2022-12-04T07:41:10.729Z,13.45
2022-12-04T07:43:38.030Z,14.38
2022-12-04T07:46:11.820Z,14.15
2022-12-04T07:48:38.427Z,13.57
2022-12-04T07:51:07.285Z,13.63
2022-12-04T07:53:35.154Z,13.20
2022-12-04T07:56:02.944Z,13.02
2022-12-04T07:58:29.511Z,12.95
2022-12-04T08:00:56.122Z,14.45
2022-12-04T08:03:22.772Z,13.80
2022-12-04T08:05:49.250Z,15.00
2022-12-04T08:08:15.799Z,14.00
2022-12-04T08:10:42.370Z,13.02
2022-12-04T08:13:08.912Z,14.65
2022-12-04T08:15:35.649Z,13.85
2022-12-04T08:18:02.154Z,13.35
2022-12-04T08:20:28.655Z,14.52
2022-12-04T08:22:55.102Z,14.88
2022-12-04T08:25:21.595Z,13.75
2022-12-04T08:27:48.438Z,14.93
2022-12-04T08:30:15.012Z,14.90
2022-12-04T08:32:41.556Z,14.32
2022-12-04T08:35:08.465Z,14.95
2022-12-04T08:37:34.988Z,14.90
2022-12-04T08:40:01.537Z,13.98
2022-12-04T08:42:28.065Z,14.48
2022-12-04T08:44:54.534Z,14.60
2022-12-04T08:47:20.991Z,14.98
2022-12-04T08:49:47.422Z,14.80
2022-12-04T08:52:13.980Z,15.05
2022-12-04T08:54:40.408Z,14.40
2022-12-04T08:57:06.896Z,14.48
2022-12-04T08:59:33.437Z,13.98
2022-12-04T09:01:59.959Z,14.48
2022-12-04T09:04:26.557Z,15.55
2022-12-04T09:06:53.063Z,14.40
2022-12-04T09:09:19.565Z,14.90
2022-12-04T09:11:46.403Z,14.35
2022-12-04T09:14:13.063Z,13.40
2022-12-04T09:16:39.524Z,13.05
2022-12-04T09:19:05.964Z,13.90
2022-12-04T09:21:32.456Z,14.82
2022-12-04T09:23:59.574Z,14.27
2022-12-04T09:26:33.259Z,15.38
2022-12-04T09:29:01.585Z,15.52
2022-12-04T09:31:28.381Z,16.25
2022-12-04T09:33:55.067Z,15.20
2022-12-04T09:36:22.000Z,15.18
2022-12-04T09:38:50.656Z,15.18
2022-12-04T09:41:54.728Z,14.40
2022-12-04T09:44:27.824Z,15.73
2022-12-04T09:47:01.965Z,15.63
2022-12-04T09:49:28.492Z,16.92
2022-12-04T09:51:59.363Z,16.02
2022-12-04T09:54:39.850Z,16.50
2022-12-04T09:57:21.990Z,14.98
2022-12-04T09:59:50.189Z,16.88
2022-12-04T10:02:35.550Z,15.15
2022-12-04T10:05:02.831Z,16.83
2022-12-04T10:07:32.926Z,16.17
2022-12-04T10:09:59.395Z,14.23
2022-12-04T10:12:57.117Z,13.95
2022-12-04T10:15:32.808Z,13.93
2022-12-04T10:18:17.785Z,13.70
2022-12-04T10:21:07.773Z,14.88
2022-12-04T10:23:43.163Z,15.07
2022-12-04T10:26:18.176Z,15.00
2022-12-04T10:28:55.275Z,15.02
2022-12-04T10:31:24.435Z,14.18
2022-12-04T10:33:55.790Z,14.00
2022-12-04T10:36:29.074Z,17.17
2022-12-04T10:38:59.584Z,17.55
2022-12-04T10:41:40.730Z,15.02
2022-12-04T10:44:19.660Z,13.48
2022-12-04T10:46:46.996Z,17.50
2022-12-04T10:49:21.657Z,15.30
2022-12-04T10:51:49.050Z,16.13
2022-12-04T10:54:37.384Z,15.25
2022-12-04T10:57:06.493Z,14.98
2022-12-04T10:59:34.075Z,13.32
2022-12-04T11:02:06.883Z,12.93
2022-12-04T11:04:35.032Z,14.65
2022-12-04T11:07:14.783Z,13.40
2022-12-04T11:09:41.348Z,13.77
2022-12-04T11:12:17.654Z,14.80
2022-12-04T11:14:47.177Z,14.02
2022-12-04T11:17:19.607Z,15.07
2022-12-04T11:19:46.120Z,15.82
2022-12-04T11:22:16.137Z,15.93
2022-12-04T11:24:49.359Z,15.38
2022-12-04T11:27:29.131Z,13.93
2022-12-04T11:29:56.683Z,13.10
2022-12-04T11:32:27.632Z,14.95
2022-12-04T11:34:57.795Z,13.07
2022-12-04T11:37:34.820Z,13.23
2022-12-04T11:40:06.760Z,13.57
2022-12-04T11:42:33.567Z,14.15
2022-12-04T11:45:18.906Z,13.95
2022-12-04T11:47:55.036Z,12.05
2022-12-04T11:50:37.717Z,12.90
2022-12-04T11:53:14.954Z,13.55
2022-12-04T11:55:47.549Z,13.02
2022-12-04T11:58:39.088Z,12.80
2022-12-04T12:01:20.925Z,12.25
2022-12-04T12:06:39.230Z,11.45
2022-12-04T12:09:22.713Z,11.23
2022-12-04T12:12:01.964Z,11.18
2022-12-04T12:14:34.767Z,12.68
2022-12-04T12:17:10.174Z,11.38
2022-12-04T12:19:45.803Z,13.10
2022-12-04T12:23:17.284Z,12.57
2022-12-04T12:25:51.922Z,10.98
2022-12-04T12:28:33.654Z,10.77
2022-12-04T12:31:06.389Z,9.93
2022-12-04T12:33:42.217Z,10.82
2022-12-04T12:36:12.814Z,11.48
2022-12-04T12:38:55.359Z,11.15
2022-12-04T12:41:50.558Z,10.27
2022-12-04T12:44:46.780Z,11.27
2022-12-04T12:47:17.974Z,12.32
2022-12-04T12:50:01.872Z,13.48
2022-12-04T12:52:52.583Z,14.95
2022-12-04T12:55:45.447Z,16.60
2022-12-04T12:58:39.831Z,13.70
2022-12-04T13:01:22.459Z,12.30
2022-12-04T13:04:04.959Z,11.55
2022-12-04T13:06:39.204Z,10.75
2022-12-04T13:09:11.683Z,11.35
2022-12-04T13:11:38.999Z,10.27
2022-12-04T13:14:06.191Z,10.10
2022-12-04T13:16:35.360Z,10.85
2022-12-04T13:19:22.863Z,10.68
2022-12-04T13:22:26.895Z,12.85
2022-12-04T13:25:21.507Z,10.95
2022-12-04T13:28:12.807Z,10.18
2022-12-04T13:30:55.735Z,9.73
2022-12-04T13:33:41.103Z,10.18
2022-12-04T13:36:07.664Z,9.65
2022-12-04T13:39:04.907Z,11.82
2022-12-04T13:41:39.076Z,11.00
2022-12-04T13:44:32.666Z,8.65
2022-12-04T13:47:00.514Z,10.05
2022-12-04T13:49:38.076Z,10.10
2022-12-04T13:52:20.686Z,9.63
2022-12-04T13:54:58.514Z,10.38
2022-12-04T13:57:27.335Z,10.13
2022-12-04T14:00:08.139Z,9.90
2022-12-04T14:02:49.061Z,9.90
2022-12-04T14:05:15.778Z,10.63
2022-12-04T14:08:06.917Z,10.27
2022-12-04T14:10:38.987Z,8.75
2022-12-04T14:13:29.052Z,10.68
2022-12-04T14:16:08.065Z,11.27
2022-12-04T14:18:34.666Z,10.23
2022-12-04T14:21:05.536Z,10.02
2022-12-04T14:23:42.681Z,12.85
2022-12-04T14:29:47.878Z,10.20
2022-12-04T14:32:18.715Z,12.15
2022-12-04T14:34:47.910Z,10.43
2022-12-04T14:37:27.826Z,10.50
2022-12-04T14:39:56.619Z,9.25
2022-12-04T14:42:27.087Z,11.13
2022-12-04T14:44:56.560Z,10.93
2022-12-04T14:47:42.152Z,11.63
2022-12-04T14:50:39.224Z,10.55
2022-12-04T14:53:20.690Z,13.02
2022-12-04T14:56:03.387Z,10.13
2022-12-04T14:58:36.919Z,9.68
2022-12-04T15:01:23.899Z,10.27
2022-12-04T15:03:56.002Z,11.05
2022-12-04T15:06:30.201Z,12.73
2022-12-04T15:09:18.639Z,11.38
2022-12-04T15:12:11.562Z,10.23
2022-12-04T15:14:43.933Z,11.90
2022-12-04T15:17:12.395Z,11.30
2022-12-04T15:19:40.208Z,10.77
2022-12-04T15:22:32.992Z,11.93
2022-12-04T15:24:59.928Z,11.93
2022-12-04T15:27:31.964Z,11.63
2022-12-04T15:30:01.541Z,12.18
2022-12-04T15:32:29.716Z,11.30
2022-12-04T15:35:03.046Z,13.85
2022-12-04T15:37:31.555Z,12.07
2022-12-04T15:39:59.234Z,10.23
2022-12-04T15:42:28.868Z,14.27
2022-12-04T15:45:01.178Z,12.00
2022-12-04T15:47:48.103Z,10.80
2022-12-04T15:50:17.522Z,11.70
2022-12-04T15:53:26.744Z,11.38
2022-12-04T15:55:56.313Z,11.68
2022-12-04T15:58:28.117Z,13.07
2022-12-04T16:03:32.913Z,12.02
2022-12-04T16:06:32.733Z,14.07
2022-12-04T16:09:17.375Z,13.50
2022-12-04T16:11:44.499Z,13.25
2022-12-04T16:14:10.921Z,18.95
2022-12-04T16:16:41.985Z,16.35
2022-12-04T16:19:15.194Z,13.00
2022-12-04T16:21:41.800Z,12.95
2022-12-04T16:24:11.471Z,12.52
2022-12-04T16:26:37.908Z,11.23
2022-12-04T16:29:04.350Z,13.77
2022-12-04T16:31:30.945Z,13.55
2022-12-04T16:33:57.609Z,13.02
2022-12-04T16:36:24.162Z,13.43
2022-12-04T16:38:51.352Z,12.52
2022-12-04T16:41:19.529Z,12.93
2022-12-04T16:43:53.782Z,12.80
2022-12-04T16:46:20.918Z,14.35
2022-12-04T16:48:47.342Z,14.52
2022-12-04T16:51:19.955Z,14.18
2022-12-04T16:53:46.466Z,12.73
2022-12-04T16:56:13.262Z,13.13
2022-12-04T16:58:39.759Z,13.77
2022-12-04T17:01:18.142Z,11.02
2022-12-04T17:03:44.688Z,12.85
2022-12-04T17:06:11.204Z,12.93
2022-12-04T17:08:37.641Z,14.05
2022-12-04T17:11:04.155Z,12.07
2022-12-04T17:13:30.592Z,11.80
2022-12-04T17:15:58.227Z,12.57
2022-12-04T17:18:24.728Z,13.10
2022-12-04T17:20:51.262Z,12.25
2022-12-04T17:23:17.821Z,11.82
2022-12-04T17:25:44.322Z,12.63
2022-12-04T17:28:11.674Z,11.45
2022-12-04T17:30:38.082Z,12.82
2022-12-04T17:33:05.291Z,12.35
2022-12-04T17:35:31.877Z,11.25
2022-12-04T17:38:02.301Z,13.63
2022-12-04T17:40:32.290Z,12.63
2022-12-04T17:42:58.700Z,11.68
2022-12-04T17:45:25.147Z,10.77
2022-12-04T17:47:51.641Z,12.13
2022-12-04T17:50:18.175Z,12.15
2022-12-04T17:52:44.700Z,12.02
2022-12-04T17:55:11.091Z,11.45
2022-12-04T17:57:37.596Z,10.68
2022-12-04T18:00:04.886Z,11.93
2022-12-04T18:02:38.943Z,11.80
2022-12-04T18:05:05.511Z,12.10
2022-12-04T18:07:31.981Z,11.77
2022-12-04T18:09:58.733Z,11.52
2022-12-04T18:12:25.677Z,13.38
2022-12-04T18:14:53.112Z,13.05
2022-12-04T18:17:20.812Z,12.80
2022-12-04T18:19:47.229Z,12.82
2022-12-04T18:22:13.924Z,13.73
2022-12-04T18:24:40.467Z,12.85
2022-12-04T18:27:07.995Z,11.90
2022-12-04T18:29:34.454Z,13.43
2022-12-04T18:32:00.989Z,12.70
2022-12-04T18:34:27.468Z,12.90
2022-12-04T18:36:53.866Z,12.35
2022-12-04T18:39:23.218Z,13.30
2022-12-04T18:41:50.211Z,14.35
2022-12-04T18:44:17.456Z,13.45
2022-12-04T18:46:43.996Z,13.45
2022-12-04T18:49:11.367Z,12.73
2022-12-04T18:51:47.136Z,12.63
2022-12-04T18:54:18.504Z,12.35
2022-12-04T18:56:45.754Z,12.93
2022-12-04T18:59:30.413Z,13.10
2022-12-04T19:01:56.912Z,13.40
2022-12-04T19:04:24.800Z,12.73
2022-12-04T19:06:54.389Z,13.32
2022-12-04T19:09:54.389Z,14.10
2022-12-04T19:12:14.690Z,11.70
2022-12-04T19:14:41.217Z,14.43
2022-12-04T19:17:07.755Z,14.27
2022-12-04T19:19:34.299Z,13.38
2022-12-04T19:22:01.140Z,12.70
2022-12-04T19:24:27.697Z,12.52
2022-12-04T19:26:54.562Z,14.32
2022-12-04T19:29:21.069Z,14.25
2022-12-04T19:31:47.537Z,13.00
2022-12-04T19:34:14.081Z,13.32
2022-12-04T19:36:41.175Z,14.38
2022-12-04T19:39:07.657Z,12.48
2022-12-04T19:41:35.213Z,14.70
2022-12-04T19:44:07.849Z,16.58
2022-12-04T19:46:41.389Z,15.05
2022-12-04T19:49:08.122Z,20.27
2022-12-04T19:51:37.910Z,16.38
2022-12-04T19:54:05.761Z,17.13
2022-12-04T19:56:34.647Z,14.27
2022-12-04T19:59:03.904Z,12.35
2022-12-04T20:01:32.272Z,13.73
2022-12-04T20:04:02.515Z,13.70
2022-12-04T20:06:30.471Z,14.57
2022-12-04T20:08:59.615Z,12.75
2022-12-04T20:11:28.083Z,13.15
2022-12-04T20:13:56.718Z,18.40
2022-12-04T20:16:24.996Z,23.55
2022-12-04T20:18:52.539Z,14.57
2022-12-04T20:21:19.921Z,12.32
2022-12-04T20:23:51.171Z,14.88
2022-12-04T20:26:20.561Z,13.30
2022-12-04T20:28:46.991Z,12.82
2022-12-04T20:31:14.166Z,13.80
2022-12-04T20:33:41.149Z,12.10
2022-12-04T20:36:09.497Z,13.30
2022-12-04T20:38:36.476Z,14.90
2022-12-04T20:41:07.863Z,14.25
2022-12-04T20:43:34.702Z,25.50
2022-12-04T20:46:01.572Z,16.90
2022-12-04T20:48:28.453Z,13.30
2022-12-04T20:50:54.967Z,14.25
2022-12-04T20:53:21.430Z,12.50
2022-12-04T20:55:55.344Z,10.82
2022-12-04T20:58:22.053Z,11.68
2022-12-04T21:00:48.906Z,13.73
2022-12-04T21:03:15.842Z,11.57
2022-12-04T21:05:48.272Z,11.40
2022-12-04T21:08:14.796Z,12.25
2022-12-04T21:10:41.284Z,11.25
2022-12-04T21:13:31.291Z,10.35
2022-12-04T21:16:01.935Z,11.25
2022-12-04T21:18:28.427Z,14.10
2022-12-04T21:20:54.820Z,9.77
2022-12-04T21:23:21.223Z,13.00
2022-12-04T21:25:47.707Z,11.75
2022-12-04T21:28:14.164Z,12.07
2022-12-04T21:30:40.699Z,10.63
2022-12-04T21:33:07.202Z,11.18
2022-12-04T21:35:33.665Z,10.85
2022-12-04T21:38:00.081Z,13.50
2022-12-04T21:40:26.536Z,15.77
2022-12-04T21:42:53.006Z,13.23
2022-12-04T21:45:19.460Z,10.98
2022-12-04T21:47:45.873Z,13.30
2022-12-04T21:50:12.374Z,11.60
2022-12-04T21:52:38.783Z,11.10
2022-12-04T21:55:05.517Z,13.18
2022-12-04T21:57:32.060Z,11.48
2022-12-04T21:59:58.668Z,10.70
2022-12-04T22:02:25.310Z,15.05
2022-12-04T22:04:51.857Z,13.45
2022-12-04T22:07:18.267Z,11.10
2022-12-04T22:09:44.813Z,13.07
2022-12-04T22:12:33.084Z,11.50
2022-12-04T22:14:57.631Z,9.98
2022-12-04T22:17:24.047Z,11.45
2022-12-04T22:19:50.461Z,10.27
2022-12-04T22:22:16.885Z,11.52
2022-12-04T22:24:43.310Z,11.68
2022-12-04T22:27:14.778Z,10.20
2022-12-04T22:29:50.232Z,9.25
2022-12-04T22:32:27.602Z,8.98
2022-12-04T22:34:54.041Z,9.27
2022-12-04T22:37:20.451Z,9.70
2022-12-04T22:39:46.951Z,8.50
2022-12-04T22:42:13.479Z,9.27
2022-12-04T22:44:39.933Z,9.60
2022-12-04T22:47:06.534Z,9.68
2022-12-04T22:49:33.100Z,10.52
2022-12-04T22:51:59.630Z,8.95
2022-12-04T22:54:26.098Z,8.38
2022-12-04T22:56:53.286Z,8.68
2022-12-04T22:59:19.683Z,8.95
2022-12-04T23:01:46.132Z,8.60
2022-12-04T23:04:12.825Z,8.57
2022-12-04T23:06:39.212Z,8.77
2022-12-04T23:09:12.007Z,7.68
2022-12-04T23:11:39.222Z,8.57
2022-12-04T23:14:08.425Z,7.43
2022-12-04T23:16:36.744Z,8.13
2022-12-04T23:19:05.152Z,8.63
2022-12-04T23:21:31.850Z,7.88
2022-12-04T23:23:58.414Z,8.98
2022-12-04T23:26:29.807Z,8.48
2022-12-04T23:28:56.734Z,9.00
2022-12-04T23:31:24.117Z,9.80
2022-12-04T23:33:50.863Z,8.80
2022-12-04T23:36:17.364Z,9.82
2022-12-04T23:38:44.263Z,8.18
2022-12-04T23:41:12.204Z,8.60
2022-12-04T23:43:39.543Z,8.57
2022-12-04T23:46:10.936Z,9.95
2022-12-04T23:48:39.304Z,7.95
2022-12-04T23:51:06.816Z,8.40
2022-12-04T23:53:33.679Z,9.05
2022-12-04T23:56:18.733Z,7.93
2022-12-04T23:58:46.812Z,9.00
